Time;durP1;ratioP1;P1;durP2;ratioP2;P2;SDS_P1;SDS_P2;PMS_P1;PMS_P2;Temp;Humidity;BMP_temperature;BMP_pressure;BME280_temperature;BME280_humidity;BME280_pressure;Samples;Min_cycle;Max_cycle;Signal;HPM_P1;HPM_P2
2022/10/04 00:02:23;;;;;;;0.00;0.00;;;11.40;99.90;;;;;;5032644;28;20051;-81
2022/10/04 00:04:57;;;;;;;0.10;0.10;;;10.00;99.90;;;;;;5046310;28;20041;-81
2022/10/04 00:07:27;;;;;;;0.10;0.10;;;10.00;99.90;;;;;;5046745;28;20056;-82
2022/10/04 00:09:58;;;;;;;0.10;0.10;;;10.00;99.90;;;;;;5036641;28;20042;-81
2022/10/04 00:12:27;;;;;;;;;;;10.00;99.90;;;;;;5031098;28;20120;-81
2022/10/04 00:14:58;;;;;;;0.05;0.05;;;10.00;99.90;;;;;;5030323;28;19960;-81
2022/10/04 00:17:27;;;;;;;0.10;0.10;;;10.00;99.90;;;;;;5021943;28;20125;-81
2022/10/04 00:19:55;;;;;;;0.03;0.03;;;10.00;99.90;;;;;;5027526;28;20042;-81
2022/10/04 00:22:27;;;;;;;0.00;0.00;;;10.00;99.90;;;;;;5032180;28;20420;-81
2022/10/04 00:25:32;;;;;;;0.00;0.00;;;10.10;99.90;;;;;;5032139;28;20138;-82
2022/10/04 00:28:40;;;;;;;0.10;0.10;;;10.10;99.90;;;;;;5030487;28;20041;-83
2022/10/04 00:31:21;;;;;;;0.00;0.00;;;10.10;99.90;;;;;;5029488;28;20116;-83
2022/10/04 00:33:50;;;;;;;0.10;0.10;;;10.10;99.90;;;;;;5031634;28;20095;-81
2022/10/04 00:36:45;;;;;;;0.00;0.00;;;10.10;99.90;;;;;;5029390;28;20124;-81
2022/10/04 00:39:15;;;;;;;0.00;0.00;;;10.10;99.90;;;;;;5044634;28;20116;-83
2022/10/04 00:41:54;;;;;;;0.00;0.00;;;10.10;99.90;;;;;;5044708;28;20045;-84
2022/10/04 00:44:27;;;;;;;0.00;0.00;;;10.10;99.90;;;;;;5035026;28;20136;-82
2022/10/04 00:46:57;;;;;;;0.00;0.00;;;10.10;99.90;;;;;;5030207;28;20045;-82
2022/10/04 00:49:31;;;;;;;0.00;0.00;;;10.10;99.90;;;;;;5033679;28;20084;-81
2022/10/04 00:52:02;;;;;;;0.00;0.00;;;10.20;99.90;;;;;;5030453;28;20046;-81
2022/10/04 00:54:33;;;;;;;0.10;0.10;;;10.10;99.90;;;;;;5043349;28;20509;-81
2022/10/04 00:57:03;;;;;;;0.10;0.10;;;10.10;99.90;;;;;;5033184;28;20037;-81
2022/10/04 00:59:35;;;;;;;0.10;0.10;;;10.90;99.90;;;;;;5029195;28;20065;-81
2022/10/04 01:02:12;;;;;;;0.08;0.08;;;10.20;99.90;;;;;;5019512;28;20033;-81
2022/10/04 01:04:44;;;;;;;0.00;0.00;;;10.20;99.90;;;;;;5028362;28;20072;-81
2022/10/04 01:07:14;;;;;;;0.05;0.05;;;10.20;99.90;;;;;;5030947;28;20045;-82
2022/10/04 01:09:47;;;;;;;0.10;0.10;;;10.20;99.90;;;;;;5044098;28;20046;-81
2022/10/04 01:12:25;;;;;;;0.00;0.00;;;10.20;99.90;;;;;;5025320;28;21510;-81
2022/10/04 01:15:01;;;;;;;0.00;0.00;;;10.20;99.90;;;;;;5027065;28;20132;-82
2022/10/04 01:17:29;;;;;;;0.00;0.00;;;10.20;99.90;;;;;;5032249;28;20045;-81
2022/10/04 01:19:56;;;;;;;0.05;0.05;;;10.20;99.90;;;;;;5027697;28;20053;-82
2022/10/04 01:22:35;;;;;;;0.00;0.00;;;10.20;99.90;;;;;;5032808;28;20120;-82
2022/10/04 01:25:02;;;;;;;0.00;0.00;;;10.20;99.90;;;;;;5025834;28;20045;-81
2022/10/04 01:27:36;;;;;;;0.00;0.00;;;10.10;99.90;;;;;;5023617;28;20053;-81
2022/10/04 01:30:08;;;;;;;0.08;0.08;;;10.20;99.90;;;;;;5030930;28;20060;-81
2022/10/04 01:32:36;;;;;;;0.10;0.10;;;10.20;99.90;;;;;;5049335;28;20073;-80
2022/10/04 01:35:03;;;;;;;0.00;0.00;;;10.20;99.90;;;;;;5033992;28;20465;-82
2022/10/04 01:37:32;;;;;;;0.03;0.03;;;10.20;99.90;;;;;;5030291;28;20037;-81
2022/10/04 01:39:59;;;;;;;0.00;0.00;;;10.20;99.90;;;;;;5030005;28;20420;-81
2022/10/04 01:42:31;;;;;;;0.00;0.00;;;10.20;99.90;;;;;;5026273;28;20037;-81
2022/10/04 01:45:04;;;;;;;0.08;0.08;;;10.20;99.90;;;;;;5041519;28;20064;-81
2022/10/04 01:47:36;;;;;;;0.00;0.00;;;10.20;99.90;;;;;;5026512;28;20069;-82
2022/10/04 01:50:07;;;;;;;0.00;0.00;;;10.20;99.90;;;;;;5029525;28;20045;-81
2022/10/04 01:52:46;;;;;;;0.10;0.10;;;10.30;99.90;;;;;;5028465;28;20482;-81
2022/10/04 01:55:16;;;;;;;0.10;0.10;;;10.20;99.90;;;;;;5027535;28;20049;-81
2022/10/04 01:57:47;;;;;;;0.00;0.00;;;11.80;99.90;;;;;;5026816;28;20044;-81
2022/10/04 02:00:15;;;;;;;0.00;0.00;;;10.30;99.90;;;;;;5025636;28;20068;-82
2022/10/04 02:02:48;;;;;;;0.00;0.00;;;10.40;99.90;;;;;;5026425;28;20046;-81
2022/10/04 02:05:20;;;;;;;0.10;0.10;;;10.40;99.90;;;;;;5030847;28;20038;-81
2022/10/04 02:07:49;;;;;;;0.00;0.00;;;10.30;99.90;;;;;;5027318;28;20072;-81
2022/10/04 02:10:18;;;;;;;0.10;0.10;;;10.30;99.90;;;;;;5026824;28;20041;-82
2022/10/04 02:12:48;;;;;;;0.00;0.00;;;10.30;99.90;;;;;;5036525;28;20081;-82
2022/10/04 02:15:17;;;;;;;0.10;0.10;;;10.20;99.90;;;;;;5030414;28;20053;-82
2022/10/04 02:17:45;;;;;;;0.00;0.00;;;10.20;99.90;;;;;;5024174;28;20038;-79
2022/10/04 02:20:18;;;;;;;0.00;0.00;;;10.20;99.90;;;;;;5025369;28;20081;-82
2022/10/04 02:22:48;;;;;;;0.10;0.10;;;10.20;99.90;;;;;;5038356;28;20041;-80
2022/10/04 02:25:19;;;;;;;0.00;0.00;;;10.30;99.90;;;;;;5030951;28;20039;-81
2022/10/04 02:27:46;;;;;;;0.00;0.00;;;10.30;99.90;;;;;;5026897;28;20052;-81
2022/10/04 02:30:13;;;;;;;0.00;0.00;;;10.30;99.90;;;;;;5032734;28;20510;-82
2022/10/04 02:32:59;;;;;;;0.00;0.00;;;10.20;99.90;;;;;;5025923;28;20073;-81
2022/10/04 02:35:29;;;;;;;0.05;0.05;;;10.20;99.90;;;;;;5024516;28;20051;-81
2022/10/04 02:38:04;;;;;;;0.00;0.00;;;12.20;99.90;;;;;;5025594;28;20497;-76
2022/10/04 02:40:38;;;;;;;0.10;0.10;;;10.30;99.90;;;;;;5028098;28;20116;-81
2022/10/04 02:43:11;;;;;;;0.00;0.00;;;10.30;99.90;;;;;;5025612;28;20049;-83
2022/10/04 02:45:44;;;;;;;0.00;0.00;;;10.20;99.90;;;;;;5028728;28;20045;-81
2022/10/04 02:48:28;;;;;;;0.00;0.00;;;10.30;99.90;;;;;;5043291;28;20049;-82
2022/10/04 02:51:01;;;;;;;0.00;0.00;;;10.20;99.90;;;;;;5042096;28;20424;-81
2022/10/04 02:53:35;;;;;;;0.00;0.00;;;10.20;99.90;;;;;;5028568;28;20077;-82
2022/10/04 02:56:04;;;;;;;0.00;0.00;;;10.10;99.90;;;;;;5042972;28;20045;-81
2022/10/04 02:58:31;;;;;;;0.10;0.10;;;10.10;99.90;;;;;;5031328;28;20038;-80
2022/10/04 03:01:00;;;;;;;0.00;0.00;;;10.20;99.90;;;;;;5027921;28;20038;-81
2022/10/04 03:03:29;;;;;;;0.10;0.10;;;10.20;99.90;;;;;;5026029;28;20034;-81
2022/10/04 03:06:03;;;;;;;0.00;0.00;;;10.20;99.90;;;;;;5035391;28;20075;-81
2022/10/04 03:08:33;;;;;;;0.00;0.00;;;10.20;99.90;;;;;;5028314;28;20072;-82
2022/10/04 03:11:04;;;;;;;0.10;0.10;;;10.30;99.90;;;;;;5030708;28;20409;-81
2022/10/04 03:13:31;;;;;;;0.00;0.00;;;10.30;99.90;;;;;;5031140;28;20037;-82
2022/10/04 03:15:59;;;;;;;0.00;0.00;;;10.30;99.90;;;;;;5036496;28;20050;-82
2022/10/04 03:18:26;;;;;;;0.00;0.00;;;10.30;99.90;;;;;;5028964;28;20579;-81
2022/10/04 03:20:53;;;;;;;0.00;0.00;;;10.30;99.90;;;;;;5032445;28;20049;-82
2022/10/04 03:23:20;;;;;;;0.00;0.00;;;10.30;99.90;;;;;;5030002;28;20137;-81
2022/10/04 03:25:53;;;;;;;0.00;0.00;;;10.30;99.90;;;;;;5031385;28;20391;-82
2022/10/04 03:28:22;;;;;;;0.10;0.10;;;10.30;99.90;;;;;;5040425;28;20046;-80
2022/10/04 03:30:49;;;;;;;0.00;0.00;;;10.60;99.90;;;;;;5028279;28;20053;-82
2022/10/04 03:33:19;;;;;;;0.00;0.00;;;10.40;99.90;;;;;;5029876;28;20495;-83
2022/10/04 03:35:50;;;;;;;0.00;0.00;;;10.40;99.90;;;;;;5031697;28;20053;-81
2022/10/04 03:38:18;;;;;;;0.00;0.00;;;10.40;99.90;;;;;;5020981;28;20037;-81
2022/10/04 03:40:51;;;;;;;0.00;0.00;;;10.40;99.90;;;;;;5039643;28;20051;-81
2022/10/04 03:43:23;;;;;;;0.05;0.05;;;11.40;99.90;;;;;;5030630;28;20581;-81
2022/10/04 03:45:51;;;;;;;0.00;0.00;;;10.40;99.90;;;;;;5029759;28;20092;-81
2022/10/04 03:48:27;;;;;;;0.00;0.00;;;10.40;99.90;;;;;;5032194;28;20053;-81
2022/10/04 03:50:54;;;;;;;0.00;0.00;;;10.40;99.90;;;;;;5032531;28;20049;-81
2022/10/04 03:53:29;;;;;;;0.00;0.00;;;10.40;99.90;;;;;;5025189;28;20305;-82
2022/10/04 03:55:58;;;;;;;0.03;0.03;;;10.40;99.90;;;;;;5027831;28;20115;-81
2022/10/04 03:58:32;;;;;;;0.08;0.08;;;10.40;99.90;;;;;;5023417;28;20050;-81
2022/10/04 04:01:12;;;;;;;0.00;0.00;;;10.70;99.90;;;;;;5024747;28;20421;-81
2022/10/04 04:03:50;;;;;;;0.00;0.00;;;10.50;99.90;;;;;;5025017;28;20045;-81
2022/10/04 04:06:19;;;;;;;0.00;0.00;;;10.40;99.90;;;;;;5032638;28;20045;-82
2022/10/04 04:08:50;;;;;;;0.00;0.00;;;10.40;99.90;;;;;;5026119;28;20045;-82
2022/10/04 04:11:21;;;;;;;0.00;0.00;;;10.40;99.90;;;;;;5033588;28;20136;-81
2022/10/04 04:13:57;;;;;;;0.00;0.00;;;10.30;99.90;;;;;;5030863;28;20125;-82
2022/10/04 04:16:25;;;;;;;0.00;0.00;;;10.30;99.90;;;;;;5030322;28;20041;-82
2022/10/04 04:18:57;;;;;;;0.00;0.00;;;10.40;99.90;;;;;;5020848;28;20037;-82
2022/10/04 04:21:26;;;;;;;0.08;0.08;;;10.40;99.90;;;;;;5031635;28;20049;-81
2022/10/04 04:23:57;;;;;;;0.00;0.00;;;10.30;99.90;;;;;;5029337;28;20530;-82
2022/10/04 04:26:33;;;;;;;0.00;0.00;;;10.30;99.90;;;;;;5034144;28;20048;-81
2022/10/04 04:29:07;;;;;;;0.00;0.00;;;10.30;99.90;;;;;;5023752;28;20030;-82
2022/10/04 04:31:39;;;;;;;0.00;0.00;;;10.20;99.90;;;;;;5021999;28;20759;-81
2022/10/04 04:34:20;;;;;;;0.00;0.00;;;10.50;99.90;;;;;;5030457;28;20041;-82
2022/10/04 04:36:47;;;;;;;0.00;0.00;;;11.00;99.90;;;;;;5029135;28;20067;-81
2022/10/04 04:42:04;;;;;;;0.00;0.00;;;10.20;99.90;;;;;;5031473;28;20049;-81
2022/10/04 04:44:32;;;;;;;0.00;0.00;;;10.20;99.90;;;;;;5028955;28;20493;-81
2022/10/04 04:46:59;;;;;;;0.00;0.00;;;10.30;99.90;;;;;;5027397;28;20043;-81
2022/10/04 04:49:28;;;;;;;0.00;0.00;;;10.30;99.90;;;;;;5025178;28;20045;-81
2022/10/04 04:51:56;;;;;;;0.00;0.00;;;10.20;99.90;;;;;;5044262;28;20076;-81
2022/10/04 04:54:26;;;;;;;0.05;0.05;;;10.20;99.90;;;;;;5029231;28;20045;-82
2022/10/04 04:56:55;;;;;;;0.00;0.00;;;10.20;99.90;;;;;;5028497;28;20531;-81
2022/10/04 04:59:24;;;;;;;0.00;0.00;;;10.20;99.90;;;;;;5023430;28;20046;-82
2022/10/04 05:01:52;;;;;;;0.00;0.00;;;10.20;99.90;;;;;;5025692;28;20370;-84
2022/10/04 05:04:21;;;;;;;0.10;0.10;;;10.20;99.90;;;;;;5034132;28;20051;-81
2022/10/04 05:06:59;;;;;;;0.00;0.00;;;10.20;99.90;;;;;;5037772;28;20089;-83
2022/10/04 05:09:29;;;;;;;0.00;0.00;;;10.20;99.90;;;;;;5041721;28;20517;-81
2022/10/04 05:12:06;;;;;;;0.10;0.10;;;10.20;99.90;;;;;;5044092;28;20049;-82
2022/10/04 05:14:36;;;;;;;0.00;0.00;;;10.10;99.90;;;;;;5030127;28;20505;-81
2022/10/04 05:17:05;;;;;;;0.00;0.00;;;10.10;99.90;;;;;;5033315;28;20520;-83
2022/10/04 05:19:36;;;;;;;0.08;0.08;;;10.10;99.90;;;;;;5030214;28;20038;-83
2022/10/04 05:22:08;;;;;;;0.00;0.00;;;10.10;99.90;;;;;;5037839;28;20112;-82
2022/10/04 05:24:38;;;;;;;0.00;0.00;;;10.10;99.90;;;;;;5022022;28;20042;-81
2022/10/04 05:27:13;;;;;;;0.00;0.00;;;10.10;99.90;;;;;;5026065;28;20416;-81
2022/10/04 05:29:49;;;;;;;0.03;0.03;;;10.00;99.90;;;;;;5047631;28;20159;-81
2022/10/04 05:32:29;;;;;;;0.03;0.03;;;10.00;99.90;;;;;;5023799;28;20049;-82
2022/10/04 05:34:58;;;;;;;0.10;0.10;;;12.00;99.90;;;;;;5028531;28;20049;-82
2022/10/04 05:37:58;;;;;;;0.00;0.00;;;10.10;99.90;;;;;;5024343;28;20127;-80
2022/10/04 05:40:40;;;;;;;0.10;0.10;;;10.00;99.90;;;;;;5020971;28;20049;-82
2022/10/04 05:43:23;;;;;;;0.00;0.00;;;10.00;99.90;;;;;;5030791;28;20142;-81
2022/10/04 05:46:21;;;;;;;0.00;0.00;;;10.00;99.90;;;;;;5021573;28;20077;-82
2022/10/04 05:48:54;;;;;;;0.05;0.05;;;10.00;99.90;;;;;;5027513;28;20095;-82
2022/10/04 05:51:24;;;;;;;0.00;0.00;;;10.40;99.90;;;;;;5025557;28;20103;-81
2022/10/04 05:53:51;;;;;;;0.00;0.00;;;10.10;99.90;;;;;;5024954;28;20420;-82
2022/10/04 05:56:40;;;;;;;0.00;0.00;;;10.10;99.90;;;;;;5026049;28;20522;-81
2022/10/04 05:59:21;;;;;;;0.00;0.00;;;10.20;99.90;;;;;;5026547;28;20048;-82
2022/10/04 06:01:55;;;;;;;0.00;0.00;;;10.20;99.90;;;;;;5020814;28;20184;-82
2022/10/04 06:04:55;;;;;;;0.10;0.10;;;10.20;99.90;;;;;;5038476;28;20480;-81
2022/10/04 06:07:29;;;;;;;0.00;0.00;;;10.20;99.90;;;;;;5028095;28;20034;-82
2022/10/04 06:10:04;;;;;;;0.00;0.00;;;10.30;99.90;;;;;;5018250;28;20056;-81
2022/10/04 06:12:45;;;;;;;0.00;0.00;;;10.30;99.90;;;;;;5022184;28;20096;-81
2022/10/04 06:15:31;;;;;;;0.08;0.08;;;10.30;99.90;;;;;;5023032;28;20192;-81
2022/10/04 06:18:19;;;;;;;0.00;0.00;;;11.20;99.90;;;;;;5024510;28;20041;-82
2022/10/04 06:21:06;;;;;;;0.00;0.00;;;10.40;99.90;;;;;;5047246;28;20049;-82
2022/10/04 06:23:42;;;;;;;0.00;0.00;;;10.40;99.90;;;;;;5020765;28;20046;-81
2022/10/04 06:26:12;;;;;;;0.00;0.00;;;10.40;99.90;;;;;;5030002;28;20102;-81
2022/10/04 06:28:40;;;;;;;;;;;10.40;99.90;;;;;;5034971;28;20043;-80
2022/10/04 06:31:34;;;;;;;0.00;0.00;;;10.40;99.90;;;;;;5030627;28;19921;-81
2022/10/04 06:34:19;;;;;;;0.00;0.00;;;10.40;99.90;;;;;;5029178;28;20041;-82
2022/10/04 06:37:20;;;;;;;0.00;0.00;;;10.40;99.90;;;;;;5046191;28;20041;-82
2022/10/04 06:40:08;;;;;;;0.10;0.10;;;10.50;99.90;;;;;;5040730;28;20052;-82
2022/10/04 06:42:55;;;;;;;0.00;0.00;;;10.50;99.90;;;;;;5028859;28;20043;-81
2022/10/04 06:45:36;;;;;;;0.05;0.05;;;10.50;99.90;;;;;;5038774;28;20489;-82
2022/10/04 06:48:32;;;;;;;0.00;0.00;;;10.60;99.90;;;;;;5031012;28;20565;-81
2022/10/04 06:51:08;;;;;;;0.00;0.00;;;10.60;99.90;;;;;;5031945;28;20176;-81
2022/10/04 06:53:49;;;;;;;0.00;0.00;;;10.70;99.90;;;;;;5032566;28;20055;-82
2022/10/04 06:56:30;;;;;;;0.00;0.00;;;10.70;99.90;;;;;;5046800;28;20408;-81
2022/10/04 06:59:17;;;;;;;0.00;0.00;;;10.80;99.90;;;;;;5038604;28;20055;-81
2022/10/04 07:01:50;;;;;;;0.00;0.00;;;10.80;99.90;;;;;;5030793;28;20041;-82
2022/10/04 07:04:27;;;;;;;0.00;0.00;;;10.90;99.90;;;;;;5022773;28;20037;-81
2022/10/04 07:07:25;;;;;;;0.00;0.00;;;11.10;99.90;;;;;;5033017;28;20060;-81
2022/10/04 07:10:01;;;;;;;0.00;0.00;;;11.00;99.90;;;;;;5048629;28;20048;-82
2022/10/04 07:12:30;;;;;;;0.00;0.00;;;11.10;99.90;;;;;;5025817;28;20041;-82
2022/10/04 07:15:01;;;;;;;0.00;0.00;;;11.30;99.90;;;;;;5029094;28;20052;-82
2022/10/04 07:17:35;;;;;;;0.00;0.00;;;11.20;99.90;;;;;;5034489;28;20535;-81
2022/10/04 07:20:04;;;;;;;0.00;0.00;;;11.50;99.90;;;;;;5029582;28;20048;-82
2022/10/04 07:22:38;;;;;;;0.00;0.00;;;11.30;99.90;;;;;;5017356;28;20077;-79
2022/10/04 07:25:16;;;;;;;0.00;0.00;;;11.30;99.90;;;;;;5027113;28;20436;-81
2022/10/04 07:29:19;;;;;;;0.00;0.00;;;11.40;99.90;;;;;;5030212;28;20124;-80
2022/10/04 07:30:42;;;;;;;0.00;0.00;;;11.50;99.90;;;;;;5027473;28;20053;-81
2022/10/04 07:33:15;;;;;;;0.00;0.00;;;11.40;99.90;;;;;;5020855;28;20549;-80
2022/10/04 07:35:45;;;;;;;0.00;0.00;;;11.50;99.90;;;;;;5025008;28;20796;-81
2022/10/04 07:38:18;;;;;;;0.00;0.00;;;11.50;99.90;;;;;;5022223;28;20047;-81
2022/10/04 07:40:58;;;;;;;0.00;0.00;;;11.60;99.90;;;;;;5020778;28;20056;-80
2022/10/04 07:43:29;;;;;;;0.00;0.00;;;11.70;99.90;;;;;;5023253;28;20494;-83
2022/10/04 07:46:03;;;;;;;0.00;0.00;;;11.80;99.90;;;;;;5046635;28;20557;-83
2022/10/04 07:48:30;;;;;;;0.00;0.00;;;12.00;99.90;;;;;;5021850;28;20441;-82
2022/10/04 07:51:04;;;;;;;0.00;0.00;;;12.00;99.90;;;;;;5020196;28;20458;-81
2022/10/04 07:53:40;;;;;;;0.00;0.00;;;12.10;99.90;;;;;;5041643;28;20042;-81
2022/10/04 07:56:13;;;;;;;0.00;0.00;;;12.10;99.90;;;;;;5023290;28;20477;-82
2022/10/04 07:58:50;;;;;;;0.00;0.00;;;12.70;99.90;;;;;;5025697;28;20485;-82
2022/10/04 08:01:26;;;;;;;0.00;0.00;;;12.20;99.90;;;;;;5019869;28;20517;-81
2022/10/04 08:04:10;;;;;;;0.00;0.00;;;12.20;99.90;;;;;;5020787;28;20041;-81
2022/10/04 08:06:42;;;;;;;0.00;0.00;;;13.20;99.90;;;;;;5025859;28;20119;-83
2022/10/04 08:09:41;;;;;;;0.00;0.00;;;12.20;99.90;;;;;;5028314;28;20041;-80
2022/10/04 08:12:17;;;;;;;0.00;0.00;;;12.20;99.90;;;;;;5020721;28;20052;-80
2022/10/04 08:14:53;;;;;;;0.00;0.00;;;12.30;99.90;;;;;;5024666;28;20038;-82
2022/10/04 08:17:31;;;;;;;0.00;0.00;;;12.30;99.90;;;;;;5020249;28;20152;-82
2022/10/04 08:20:11;;;;;;;0.00;0.00;;;12.30;99.90;;;;;;5019855;28;20049;-82
2022/10/04 08:22:51;;;;;;;0.00;0.00;;;12.30;99.90;;;;;;5037571;28;20520;-82
2022/10/04 08:25:26;;;;;;;0.00;0.00;;;12.30;99.90;;;;;;5037131;28;20103;-81
2022/10/04 08:31:04;;;;;;;0.00;0.00;;;12.30;99.90;;;;;;5022144;28;20069;-82
2022/10/04 08:33:45;;;;;;;0.00;0.00;;;12.40;99.90;;;;;;5017481;28;20107;-81
2022/10/04 08:36:22;;;;;;;0.00;0.00;;;12.40;99.90;;;;;;5019919;28;20104;-82
2022/10/04 08:38:55;;;;;;;0.00;0.00;;;12.40;99.90;;;;;;5024660;28;20498;-81
2022/10/04 08:41:56;;;;;;;0.00;0.00;;;12.50;99.90;;;;;;5022601;28;20049;-82
2022/10/04 08:44:55;;;;;;;0.05;0.05;;;12.50;99.90;;;;;;5013996;28;20103;-81
2022/10/04 08:47:53;;;;;;;0.00;0.00;;;12.50;99.90;;;;;;5025758;28;20091;-82
2022/10/04 08:51:12;;;;;;;0.00;0.00;;;12.60;99.90;;;;;;5030150;28;20071;-82
2022/10/04 08:54:05;;;;;;;0.00;0.00;;;12.60;99.90;;;;;;5009476;28;20122;-81
2022/10/04 08:56:50;;;;;;;0.00;0.00;;;12.70;99.90;;;;;;5017254;28;20546;-83
2022/10/04 08:59:42;;;;;;;0.00;0.00;;;13.10;99.90;;;;;;5025237;28;20059;-81
2022/10/04 09:02:45;;;;;;;0.00;0.00;;;12.70;99.90;;;;;;5036879;28;20079;-82
2022/10/04 09:05:31;;;;;;;0.00;0.00;;;12.70;99.90;;;;;;5031786;28;20269;-82
2022/10/04 09:08:51;;;;;;;0.00;0.00;;;12.80;99.90;;;;;;5040391;28;20052;-82
2022/10/04 09:11:42;;;;;;;0.00;0.00;;;12.90;99.90;;;;;;5035424;28;20124;-83
2022/10/04 09:14:37;;;;;;;0.00;0.00;;;13.00;99.90;;;;;;5045035;28;20041;-82
2022/10/04 09:17:19;;;;;;;0.00;0.00;;;12.90;99.90;;;;;;5033622;28;20709;-82
2022/10/04 09:20:20;;;;;;;0.00;0.00;;;13.10;99.90;;;;;;5033704;28;20041;-82
2022/10/04 09:23:17;;;;;;;0.00;0.00;;;13.10;99.90;;;;;;5046139;28;20056;-82
2022/10/04 09:25:55;;;;;;;0.00;0.00;;;13.20;99.90;;;;;;5034341;28;20493;-82
2022/10/04 09:29:04;;;;;;;0.00;0.00;;;13.20;99.90;;;;;;5039527;28;20317;-81
2022/10/04 09:31:58;;;;;;;0.00;0.00;;;13.30;99.90;;;;;;5032631;28;20409;-82
2022/10/04 09:34:41;;;;;;;0.00;0.00;;;13.40;99.90;;;;;;5052427;28;20040;-82
2022/10/04 09:37:28;;;;;;;0.00;0.00;;;13.40;99.90;;;;;;5032920;28;20095;-82
2022/10/04 09:40:33;;;;;;;0.00;0.00;;;13.60;99.90;;;;;;5026391;28;20049;-82
2022/10/04 09:43:35;;;;;;;0.00;0.00;;;13.60;99.90;;;;;;5031752;28;20040;-82
2022/10/04 09:46:18;;;;;;;0.00;0.00;;;13.70;99.90;;;;;;5026606;28;20089;-82
2022/10/04 09:48:55;;;;;;;0.00;0.00;;;13.90;99.90;;;;;;5026184;28;20053;-81
2022/10/04 09:51:40;;;;;;;0.00;0.00;;;13.90;99.90;;;;;;5026111;28;20046;-82
2022/10/04 09:54:31;;;;;;;0.00;0.00;;;13.90;99.90;;;;;;5035898;28;20041;-81
2022/10/04 09:57:18;;;;;;;0.00;0.00;;;14.00;99.90;;;;;;5026652;28;20394;-81
2022/10/04 10:00:24;;;;;;;0.00;0.00;;;14.10;99.90;;;;;;5041765;28;20049;-81
2022/10/04 10:03:18;;;;;;;0.08;0.08;;;14.20;99.90;;;;;;5023181;28;20056;-81
2022/10/04 10:06:18;;;;;;;0.00;0.00;;;14.10;99.90;;;;;;5033571;28;20048;-80
2022/10/04 10:09:01;;;;;;;0.00;0.00;;;14.30;99.90;;;;;;5037998;28;20144;-82
2022/10/04 10:14:59;;;;;;;0.00;0.00;;;14.20;99.90;;;;;;5033390;28;20600;-82
2022/10/04 10:17:36;;;;;;;0.00;0.00;;;14.40;99.90;;;;;;5035232;28;20490;-81
2022/10/04 10:20:21;;;;;;;0.00;0.00;;;14.50;99.90;;;;;;5033494;28;20045;-81
2022/10/04 10:23:19;;;;;;;0.00;0.00;;;14.50;99.90;;;;;;5058282;28;20481;-81
2022/10/04 10:25:58;;;;;;;0.00;0.00;;;14.60;99.90;;;;;;5035854;28;20049;-81
2022/10/04 10:28:44;;;;;;;0.00;0.00;;;14.60;99.90;;;;;;5026805;28;20107;-80
2022/10/04 10:31:28;;;;;;;0.00;0.00;;;14.60;99.90;;;;;;5035975;28;20068;-81
2022/10/04 10:34:28;;;;;;;0.00;0.00;;;14.70;99.90;;;;;;5035993;28;20129;-82
2022/10/04 10:37:08;;;;;;;0.00;0.00;;;14.70;99.90;;;;;;5027564;28;20049;-82
2022/10/04 10:40:13;;;;;;;0.00;0.00;;;14.70;99.90;;;;;;5044858;28;20485;-79
2022/10/04 10:42:59;;;;;;;0.00;0.00;;;14.80;99.90;;;;;;5029944;28;20056;-81
2022/10/04 10:45:44;;;;;;;0.00;0.00;;;14.90;99.90;;;;;;5029052;28;20072;-81
2022/10/04 10:48:17;;;;;;;0.00;0.00;;;14.90;99.90;;;;;;5028409;28;20494;-81
2022/10/04 10:51:02;;;;;;;0.00;0.00;;;15.00;99.90;;;;;;5033947;28;20044;-81
2022/10/04 10:54:13;;;;;;;0.00;0.00;;;15.00;99.90;;;;;;5029851;28;20138;-81
2022/10/04 10:57:08;;;;;;;0.00;0.00;;;15.10;99.90;;;;;;5042447;28;20072;-81
2022/10/04 11:00:04;;;;;;;0.00;0.00;;;15.20;99.90;;;;;;5025296;28;20124;-81
2022/10/04 11:03:10;;;;;;;0.00;0.00;;;15.20;99.90;;;;;;5027188;28;20034;-79
2022/10/04 11:06:15;;;;;;;0.00;0.00;;;15.30;99.90;;;;;;5039171;28;20056;-79
2022/10/04 11:09:16;;;;;;;0.10;0.10;;;15.30;99.90;;;;;;5041155;28;20469;-81
2022/10/04 11:12:04;;;;;;;0.00;0.00;;;14.90;99.90;;;;;;5021244;28;20080;-81
2022/10/04 11:14:53;;;;;;;0.00;0.00;;;15.40;99.90;;;;;;5031120;28;20520;-77
2022/10/04 11:18:02;;;;;;;0.00;0.00;;;15.40;99.90;;;;;;5031533;28;20531;-81
2022/10/04 11:20:49;;;;;;;0.00;0.00;;;15.60;99.90;;;;;;5027201;28;20133;-81
2022/10/04 11:23:51;;;;;;;0.00;0.00;;;15.60;99.90;;;;;;5026227;28;20042;-80
2022/10/04 11:26:51;;;;;;;0.00;0.00;;;15.60;99.90;;;;;;5029812;28;20501;-79
2022/10/04 11:29:41;;;;;;;0.00;0.00;;;15.60;99.90;;;;;;5034678;28;20288;-81
2022/10/04 11:33:01;;;;;;;0.00;0.00;;;15.70;99.90;;;;;;5044022;28;20095;-81
2022/10/04 11:35:39;;;;;;;;;;;15.80;99.90;;;;;;5042129;28;20505;-81
2022/10/04 11:38:13;;;;;;;0.00;0.00;;;15.80;99.90;;;;;;5030928;28;20396;-80
2022/10/04 11:41:11;;;;;;;0.00;0.00;;;15.80;99.90;;;;;;5033165;28;20121;-81
2022/10/04 11:44:04;;;;;;;0.00;0.00;;;15.90;99.90;;;;;;5015899;28;20085;-82
2022/10/04 11:46:37;;;;;;;0.00;0.00;;;15.90;99.90;;;;;;5026440;28;20505;-80
2022/10/04 11:49:21;;;;;;;0.00;0.00;;;15.90;99.90;;;;;;5028716;28;20118;-81
2022/10/04 11:52:16;;;;;;;0.00;0.00;;;16.00;99.90;;;;;;5024444;28;20480;-79
2022/10/04 11:55:20;;;;;;;0.00;0.00;;;16.00;99.90;;;;;;5042186;28;20045;-79
2022/10/04 11:57:53;;;;;;;0.00;0.00;;;16.10;99.90;;;;;;5026837;28;20112;-80
2022/10/04 12:00:22;;;;;;;0.00;0.00;;;16.20;99.90;;;;;;5027926;28;20413;-81
2022/10/04 12:03:08;;;;;;;0.00;0.00;;;16.30;99.90;;;;;;5031669;28;20045;-82
2022/10/04 12:05:51;;;;;;;0.00;0.00;;;16.20;99.90;;;;;;5028712;28;20619;-81
2022/10/04 12:08:31;;;;;;;0.00;0.00;;;16.30;99.90;;;;;;5024302;28;20037;-79
2022/10/04 12:11:23;;;;;;;0.00;0.00;;;16.30;99.90;;;;;;5032861;28;20037;-81
2022/10/04 12:14:04;;;;;;;0.00;0.00;;;16.30;99.90;;;;;;5029536;28;20120;-80
2022/10/04 12:16:53;;;;;;;0.00;0.00;;;16.30;99.90;;;;;;5022700;28;20125;-81
2022/10/04 12:20:03;;;;;;;0.00;0.00;;;16.30;99.90;;;;;;5041288;28;20036;-82
2022/10/04 12:22:55;;;;;;;0.00;0.00;;;16.40;99.90;;;;;;5026970;28;20788;-80
2022/10/04 12:26:07;;;;;;;0.00;0.00;;;16.40;99.90;;;;;;5034259;28;20041;-81
2022/10/04 12:28:56;;;;;;;0.00;0.00;;;16.50;99.90;;;;;;5031144;28;20045;-80
2022/10/04 12:31:26;;;;;;;;;;;16.50;99.90;;;;;;5044433;28;20585;-80
2022/10/04 12:34:01;;;;;;;0.00;0.00;;;16.50;99.90;;;;;;5038423;28;19936;-81
2022/10/04 12:36:46;;;;;;;0.00;0.00;;;16.50;99.90;;;;;;5035241;28;20041;-81
2022/10/04 12:39:33;;;;;;;0.00;0.00;;;16.50;99.90;;;;;;5036076;28;20049;-81
2022/10/04 12:42:11;;;;;;;0.00;0.00;;;16.50;99.90;;;;;;5048266;28;20038;-79
2022/10/04 12:44:51;;;;;;;0.00;0.00;;;16.60;99.90;;;;;;5025778;28;20069;-81
2022/10/04 12:47:47;;;;;;;0.00;0.00;;;16.60;99.90;;;;;;5026387;28;20567;-80
2022/10/04 12:50:25;;;;;;;0.00;0.00;;;16.70;99.90;;;;;;5030743;28;20046;-82
2022/10/04 12:52:59;;;;;;;0.00;0.00;;;16.80;99.90;;;;;;5032886;28;20509;-80
2022/10/04 12:56:00;;;;;;;0.00;0.00;;;16.70;99.90;;;;;;5038489;28;20091;-81
2022/10/04 12:58:42;;;;;;;0.00;0.00;;;16.80;99.90;;;;;;5039843;28;20076;-80
2022/10/04 13:01:19;;;;;;;0.00;0.00;;;16.90;99.90;;;;;;5046888;28;20045;-80
2022/10/04 13:04:10;;;;;;;0.00;0.00;;;16.90;99.90;;;;;;5103013;27;20462;-81
2022/10/04 13:06:51;;;;;;;0.00;0.00;;;16.90;99.90;;;;;;5086007;28;20044;-81
2022/10/04 13:09:26;;;;;;;0.00;0.00;;;16.90;99.90;;;;;;5069992;28;20094;-81
2022/10/04 13:12:09;;;;;;;0.00;0.00;;;17.00;99.90;;;;;;5084606;28;20049;-82
2022/10/04 13:14:59;;;;;;;0.00;0.00;;;17.00;99.90;;;;;;5068063;28;20048;-80
2022/10/04 13:17:38;;;;;;;0.00;0.00;;;17.00;99.90;;;;;;5085252;28;20115;-81
2022/10/04 13:20:28;;;;;;;0.00;0.00;;;17.00;99.90;;;;;;5072369;28;20050;-81
2022/10/04 13:22:58;;;;;;;0.00;0.00;;;17.00;99.90;;;;;;5087886;28;20048;-81
2022/10/04 13:25:40;;;;;;;0.00;0.00;;;17.00;99.90;;;;;;5082594;28;20044;-81
2022/10/04 13:28:20;;;;;;;0.00;0.00;;;17.00;99.90;;;;;;5068162;28;20101;-83
2022/10/04 13:30:52;;;;;;;0.00;0.00;;;17.10;99.90;;;;;;5095196;28;20052;-80
2022/10/04 13:33:25;;;;;;;0.00;0.00;;;17.10;99.90;;;;;;5097578;28;20449;-81
2022/10/04 13:36:00;;;;;;;0.00;0.00;;;17.10;99.90;;;;;;5064283;28;20056;-81
2022/10/04 13:38:58;;;;;;;0.00;0.00;;;17.20;99.90;;;;;;5070842;28;20075;-81
2022/10/04 13:41:37;;;;;;;0.00;0.00;;;17.10;99.90;;;;;;5084123;28;20557;-80
2022/10/04 13:44:22;;;;;;;0.00;0.00;;;17.10;99.90;;;;;;5074747;28;20036;-80
2022/10/04 13:47:11;;;;;;;0.00;0.00;;;17.10;99.90;;;;;;5076693;28;20072;-81
2022/10/04 13:49:51;;;;;;;0.00;0.00;;;17.10;99.90;;;;;;5067492;28;20067;-82
2022/10/04 13:58:23;;;;;;;0.00;0.00;;;17.20;99.90;;;;;;5079240;28;20078;-81
2022/10/04 14:01:30;;;;;;;0.00;0.00;;;17.10;99.90;;;;;;5060528;28;20350;-81
2022/10/04 14:04:18;;;;;;;0.00;0.00;;;17.10;99.90;;;;;;5020541;28;20037;-81
2022/10/04 14:07:21;;;;;;;0.00;0.00;;;17.10;99.90;;;;;;5068422;28;20052;-80
2022/10/04 14:10:02;;;;;;;0.00;0.00;;;17.10;99.90;;;;;;5082341;28;20056;-81